Etusivu
METAR-TAF:

METAR-TAF

Lentoasemat :

Harbin, Kiina

Leveyspiiri: 45-45N, Pituuspiiri: 126-46E, korkeus merenpinnasta: 143 m

Tämänhetkinen sää

Tämä raportti tehtiin 32 minuuttia sitten, kello 16.00 UTC
Tuuli 8 kn lännestä
Lämpötila 9°C
Kosteus 87%
Ilmanpaine 995 hPa
Näkyvyys 10 km tai enemmän
Hajanaisia pilviä 3000 ft:n korkeudessa

METAR: ZYHB 211600Z 26004MPS 9999 SCT030 09/07 Q0995 NOSIG

Aika: 00:32 (16:32 UTC)

Sääennuste

Tämä raportti tehtiin 7 tuntia ja 31 minuuttia sitten, kello 09.01 UTC
Ennuste voimassa 21. päivästä klo 12 UTC - 22. päivään klo 12 UTC
Tuuli 8 kn lännestä/luoteesta
Näkyvyys: 6000 m
Muutamia pilviä 1000 ft:n korkeudessa
Hajanaisia pilviä 2600 ft:n korkeudessa

TAF: ZYHB 210901Z 2112/2212 30004MPS 6000 FEW010 SCT026 TX17/2206Z TN06/2121Z

Säähavainnot ja -ennusteet yli 4000 lentoasemalta (METAR- ja TAF-raportit).

Käytössä olevat sääasemat on merkitty karttaan keltaisilla ja punaisilla pisteillä.

Aseta hiiri pisteen päälle nähdäksesi sääaseman nimen.

Klikkaa sitten nähdäksesi säähavainnot ja -ennusteet.

Kartan vaihtaminen: klikkaa mustalla rastilla varustettuja vihreitä pisteitä, niin voit zoomata sisään; viivalla varustettua vihreää pistettä, niin voit zoomata ulos tai vihreitä nuolia, niin pääset viereisille kartoille.


METAR-TAF: